sensor_id;sensor_type;location;lat;lon;timestamp;pressure;altitude;pressure_sealevel;temperature;humidity
76156;BME280;64906;51.290;7.348;2023-12-14T00:01:27;97693.50;;;19.22;42.98
76156;BME280;64906;51.290;7.348;2023-12-14T00:03:52;97699.19;;;19.25;42.86
76156;BME280;64906;51.290;7.348;2023-12-14T00:06:17;97701.41;;;19.23;43.05
76156;BME280;64906;51.290;7.348;2023-12-14T00:08:42;97712.34;;;19.23;42.87
76156;BME280;64906;51.290;7.348;2023-12-14T00:11:09;97706.88;;;19.23;42.83
76156;BME280;64906;51.290;7.348;2023-12-14T00:13:35;97708.00;;;19.22;42.94
76156;BME280;64906;51.290;7.348;2023-12-14T00:16:01;97714.63;;;19.21;43.13
76156;BME280;64906;51.290;7.348;2023-12-14T00:18:26;97711.38;;;19.19;43.14
76156;BME280;64906;51.290;7.348;2023-12-14T00:20:52;97717.34;;;19.21;43.17
76156;BME280;64906;51.290;7.348;2023-12-14T00:23:21;97719.28;;;19.21;43.07
76156;BME280;64906;51.290;7.348;2023-12-14T00:25:46;97725.25;;;19.23;42.96
76156;BME280;64906;51.290;7.348;2023-12-14T00:28:11;97724.94;;;19.24;42.81
76156;BME280;64906;51.290;7.348;2023-12-14T00:30:37;97732.63;;;19.22;42.92
76156;BME280;64906;51.290;7.348;2023-12-14T00:33:02;97729.09;;;19.22;43.16
76156;BME280;64906;51.290;7.348;2023-12-14T00:35:27;97734.56;;;19.22;42.80
76156;BME280;64906;51.290;7.348;2023-12-14T00:37:52;97735.69;;;19.21;42.73
76156;BME280;64906;51.290;7.348;2023-12-14T00:40:18;97743.56;;;19.22;42.96
76156;BME280;64906;51.290;7.348;2023-12-14T00:42:43;97740.34;;;19.20;42.90
76156;BME280;64906;51.290;7.348;2023-12-14T00:45:09;97747.25;;;19.18;43.03
76156;BME280;64906;51.290;7.348;2023-12-14T00:47:34;97746.94;;;19.19;43.06
76156;BME280;64906;51.290;7.348;2023-12-14T00:49:59;97755.47;;;19.18;43.05
76156;BME280;64906;51.290;7.348;2023-12-14T00:52:25;97760.94;;;19.18;43.17
76156;BME280;64906;51.290;7.348;2023-12-14T00:54:50;97768.63;;;19.16;42.81
76156;BME280;64906;51.290;7.348;2023-12-14T00:57:15;97768.94;;;19.14;42.78
76156;BME280;64906;51.290;7.348;2023-12-14T00:59:41;97770.53;;;19.15;42.71
76156;BME280;64906;51.290;7.348;2023-12-14T01:02:06;97774.41;;;19.14;42.82
76156;BME280;64906;51.290;7.348;2023-12-14T01:04:32;97782.63;;;19.14;42.80
76156;BME280;64906;51.290;7.348;2023-12-14T01:06:57;97791.94;;;19.13;42.96
76156;BME280;64906;51.290;7.348;2023-12-14T01:09:22;97800.16;;;19.13;43.29
76156;BME280;64906;51.290;7.348;2023-12-14T01:11:47;97797.44;;;19.13;43.15
76156;BME280;64906;51.290;7.348;2023-12-14T01:14:13;97808.69;;;19.12;43.01
76156;BME280;64906;51.290;7.348;2023-12-14T01:16:38;97809.47;;;19.12;43.05
76156;BME280;64906;51.290;7.348;2023-12-14T01:19:03;97816.88;;;19.12;43.09
76156;BME280;64906;51.290;7.348;2023-12-14T01:21:31;97817.00;;;19.07;43.20
76156;BME280;64906;51.290;7.348;2023-12-14T01:23:56;97828.72;;;19.07;43.08
76156;BME280;64906;51.290;7.348;2023-12-14T01:26:22;97837.22;;;19.06;43.34
76156;BME280;64906;51.290;7.348;2023-12-14T01:28:47;97829.03;;;19.06;42.70
76156;BME280;64906;51.290;7.348;2023-12-14T01:31:12;97842.72;;;19.06;43.10
76156;BME280;64906;51.290;7.348;2023-12-14T01:33:37;97846.56;;;19.05;43.07
76156;BME280;64906;51.290;7.348;2023-12-14T01:36:03;97855.09;;;19.03;43.06
76156;BME280;64906;51.290;7.348;2023-12-14T01:38:28;97853.44;;;19.02;43.04
76156;BME280;64906;51.290;7.348;2023-12-14T01:40:53;97858.13;;;19.02;42.95
76156;BME280;64906;51.290;7.348;2023-12-14T01:43:21;97870.16;;;19.01;42.88
76156;BME280;64906;51.290;7.348;2023-12-14T01:45:46;97870.47;;;18.99;42.97
76156;BME280;64906;51.290;7.348;2023-12-14T01:48:11;97872.09;;;19.00;43.19
76156;BME280;64906;51.290;7.348;2023-12-14T01:50:36;97878.16;;;18.97;42.89
76156;BME280;64906;51.290;7.348;2023-12-14T01:53:02;97886.06;;;18.99;43.13
76156;BME280;64906;51.290;7.348;2023-12-14T01:55:27;97877.84;;;18.99;43.16
76156;BME280;64906;51.290;7.348;2023-12-14T01:57:53;97883.63;;;18.97;42.91
76156;BME280;64906;51.290;7.348;2023-12-14T02:00:25;97887.50;;;18.96;43.13
76156;BME280;64906;51.290;7.348;2023-12-14T02:02:53;97891.03;;;18.97;43.05
76156;BME280;64906;51.290;7.348;2023-12-14T02:05:18;97896.00;;;18.95;43.18
76156;BME280;64906;51.290;7.348;2023-12-14T02:07:44;97905.03;;;18.95;42.88
76156;BME280;64906;51.290;7.348;2023-12-14T02:10:09;97908.56;;;18.96;43.09
76156;BME280;64906;51.290;7.348;2023-12-14T02:12:34;97912.72;;;18.93;42.94
76156;BME280;64906;51.290;7.348;2023-12-14T02:15:00;97917.06;;;18.94;43.17
76156;BME280;64906;51.290;7.348;2023-12-14T02:17:25;97927.50;;;18.92;43.05
76156;BME280;64906;51.290;7.348;2023-12-14T02:19:50;97926.41;;;18.93;43.64
76156;BME280;64906;51.290;7.348;2023-12-14T02:22:17;97933.56;;;18.89;43.11
76156;BME280;64906;51.290;7.348;2023-12-14T02:24:42;97938.25;;;18.89;43.23
76156;BME280;64906;51.290;7.348;2023-12-14T02:27:08;97947.25;;;18.89;43.31
76156;BME280;64906;51.290;7.348;2023-12-14T02:29:33;97951.09;;;18.88;43.38
76156;BME280;64906;51.290;7.348;2023-12-14T02:31:58;97947.84;;;18.86;42.96
76156;BME280;64906;51.290;7.348;2023-12-14T02:34:23;97957.69;;;18.87;43.42
76156;BME280;64906;51.290;7.348;2023-12-14T02:36:50;97968.91;;;18.86;42.97
76156;BME280;64906;51.290;7.348;2023-12-14T02:39:15;97969.72;;;18.86;43.06
76156;BME280;64906;51.290;7.348;2023-12-14T02:41:40;97976.63;;;18.84;43.32
76156;BME280;64906;51.290;7.348;2023-12-14T02:44:06;97976.63;;;18.84;43.18
76156;BME280;64906;51.290;7.348;2023-12-14T02:46:31;97979.34;;;18.84;43.06
76156;BME280;64906;51.290;7.348;2023-12-14T02:48:56;97975.28;;;18.81;43.13
76156;BME280;64906;51.290;7.348;2023-12-14T02:51:22;97990.59;;;18.82;42.95
76156;BME280;64906;51.290;7.348;2023-12-14T02:53:47;97986.53;;;18.80;43.30
76156;BME280;64906;51.290;7.348;2023-12-14T02:56:12;97997.16;;;18.81;42.94
76156;BME280;64906;51.290;7.348;2023-12-14T02:58:38;98001.03;;;18.80;42.93
76156;BME280;64906;51.290;7.348;2023-12-14T03:01:03;97992.28;;;18.78;42.96
76156;BME280;64906;51.290;7.348;2023-12-14T03:03:29;98005.97;;;18.78;43.17
76156;BME280;64906;51.290;7.348;2023-12-14T03:05:54;98005.97;;;18.78;42.99
76156;BME280;64906;51.290;7.348;2023-12-14T03:08:20;98004.34;;;18.77;42.96
76156;BME280;64906;51.290;7.348;2023-12-14T03:10:45;98019.94;;;18.77;43.18
76156;BME280;64906;51.290;7.348;2023-12-14T03:13:10;98022.16;;;18.74;43.38
76156;BME280;64906;51.290;7.348;2023-12-14T03:15:35;98023.81;;;18.76;42.87
76156;BME280;64906;51.290;7.348;2023-12-14T03:18:01;98034.00;;;18.70;43.25
76156;BME280;64906;51.290;7.348;2023-12-14T03:20:28;98029.66;;;18.69;43.05
76156;BME280;64906;51.290;7.348;2023-12-14T03:22:53;98024.75;;;18.66;43.51
76156;BME280;64906;51.290;7.348;2023-12-14T03:25:18;98027.50;;;18.66;43.20
76156;BME280;64906;51.290;7.348;2023-12-14T03:27:44;98034.91;;;18.65;43.24
76156;BME280;64906;51.290;7.348;2023-12-14T03:30:09;98039.56;;;18.65;43.38
76156;BME280;64906;51.290;7.348;2023-12-14T03:32:35;98037.94;;;18.64;43.33
76156;BME280;64906;51.290;7.348;2023-12-14T03:35:00;98037.84;;;18.69;43.18
76156;BME280;64906;51.290;7.348;2023-12-14T03:37:25;98042.06;;;18.61;43.27
76156;BME280;64906;51.290;7.348;2023-12-14T03:39:51;98049.97;;;18.63;43.46
76156;BME280;64906;51.290;7.348;2023-12-14T03:42:16;98059.28;;;18.62;43.19
76156;BME280;64906;51.290;7.348;2023-12-14T03:44:41;98054.91;;;18.61;43.24
76156;BME280;64906;51.290;7.348;2023-12-14T03:47:07;98056.84;;;18.60;43.18
76156;BME280;64906;51.290;7.348;2023-12-14T03:49:37;98057.66;;;18.61;43.22
76156;BME280;64906;51.290;7.348;2023-12-14T03:52:03;98068.09;;;18.59;43.45
76156;BME280;64906;51.290;7.348;2023-12-14T03:54:29;98076.88;;;18.56;43.10
76156;BME280;64906;51.290;7.348;2023-12-14T03:56:54;98071.13;;;18.57;43.17
76156;BME280;64906;51.290;7.348;2023-12-14T03:59:19;98077.38;;;18.58;43.33
76156;BME280;64906;51.290;7.348;2023-12-14T04:01:45;98084.78;;;18.57;43.39
76156;BME280;64906;51.290;7.348;2023-12-14T04:04:10;98091.34;;;18.56;43.26
76156;BME280;64906;51.290;7.348;2023-12-14T04:06:35;98091.34;;;18.56;43.33
76156;BME280;64906;51.290;7.348;2023-12-14T04:09:01;98098.75;;;18.56;43.16
76156;BME280;64906;51.290;7.348;2023-12-14T04:11:26;98105.31;;;18.55;43.33
76156;BME280;64906;51.290;7.348;2023-12-14T04:13:51;98109.16;;;18.54;43.44
76156;BME280;64906;51.290;7.348;2023-12-14T04:16:21;98114.09;;;18.52;43.44
76156;BME280;64906;51.290;7.348;2023-12-14T04:18:47;98119.28;;;18.53;43.45
76156;BME280;64906;51.290;7.348;2023-12-14T04:21:13;98122.31;;;18.52;43.25
76156;BME280;64906;51.290;7.348;2023-12-14T04:23:38;98131.91;;;18.49;43.02
76156;BME280;64906;51.290;7.348;2023-12-14T04:26:03;98132.72;;;18.50;43.46
76156;BME280;64906;51.290;7.348;2023-12-14T04:28:28;98142.03;;;18.49;43.21
76156;BME280;64906;51.290;7.348;2023-12-14T04:30:54;98147.13;;;18.55;43.18
76156;BME280;64906;51.290;7.348;2023-12-14T04:33:19;98159.25;;;18.49;43.14
76156;BME280;64906;51.290;7.348;2023-12-14T04:35:44;98154.06;;;18.48;43.40
76156;BME280;64906;51.290;7.348;2023-12-14T04:38:09;98159.03;;;18.46;43.19
76156;BME280;64906;51.290;7.348;2023-12-14T04:40:35;98157.38;;;18.45;43.46
76156;BME280;64906;51.290;7.348;2023-12-14T04:43:00;98166.41;;;18.45;43.13
76156;BME280;64906;51.290;7.348;2023-12-14T04:45:25;98174.91;;;18.44;43.12
76156;BME280;64906;51.290;7.348;2023-12-14T04:47:51;98169.13;;;18.45;43.15
76156;BME280;64906;51.290;7.348;2023-12-14T04:50:16;98177.94;;;18.42;43.31
76156;BME280;64906;51.290;7.348;2023-12-14T04:52:41;98177.09;;;18.42;43.11
76156;BME280;64906;51.290;7.348;2023-12-14T04:55:08;98180.94;;;18.41;43.39
76156;BME280;64906;51.290;7.348;2023-12-14T04:57:33;98189.94;;;18.41;43.06
76156;BME280;64906;51.290;7.348;2023-12-14T04:59:58;98177.09;;;18.42;43.44
76156;BME280;64906;51.290;7.348;2023-12-14T05:02:24;98182.88;;;18.40;43.44
76156;BME280;64906;51.290;7.348;2023-12-14T05:04:49;98183.16;;;18.39;43.24
76156;BME280;64906;51.290;7.348;2023-12-14T05:07:14;98194.09;;;18.39;43.29
76156;BME280;64906;51.290;7.348;2023-12-14T05:09:40;98196.81;;;18.39;43.24
76156;BME280;64906;51.290;7.348;2023-12-14T05:12:06;98199.00;;;18.37;43.53
76156;BME280;64906;51.290;7.348;2023-12-14T05:14:31;98191.63;;;18.37;43.26
76156;BME280;64906;51.290;7.348;2023-12-14T05:16:56;98207.47;;;18.40;43.24
76156;BME280;64906;51.290;7.348;2023-12-14T05:19:21;98198.69;;;18.38;43.35
76156;BME280;64906;51.290;7.348;2023-12-14T05:21:47;98210.19;;;18.40;43.30
76156;BME280;64906;51.290;7.348;2023-12-14T05:24:13;98206.91;;;18.38;43.40
76156;BME280;64906;51.290;7.348;2023-12-14T05:26:38;98208.56;;;18.39;43.37
76156;BME280;64906;51.290;7.348;2023-12-14T05:29:03;98222.75;;;18.41;43.38
76156;BME280;64906;51.290;7.348;2023-12-14T05:31:28;98218.91;;;18.42;43.05
76156;BME280;64906;51.290;7.348;2023-12-14T05:33:54;98220.53;;;18.43;43.20
76156;BME280;64906;51.290;7.348;2023-12-14T05:36:19;98228.13;;;18.46;43.26
76156;BME280;64906;51.290;7.348;2023-12-14T05:38:44;98229.78;;;18.47;43.50
76156;BME280;64906;51.290;7.348;2023-12-14T05:41:09;98227.84;;;18.48;43.36
76156;BME280;64906;51.290;7.348;2023-12-14T05:43:35;98234.13;;;18.48;43.35
76156;BME280;64906;51.290;7.348;2023-12-14T05:46:01;98234.97;;;18.49;43.52
76156;BME280;64906;51.290;7.348;2023-12-14T05:48:27;98242.56;;;18.52;43.32
76156;BME280;64906;51.290;7.348;2023-12-14T05:50:53;98248.84;;;18.52;43.51
76156;BME280;64906;51.290;7.348;2023-12-14T05:53:18;98246.91;;;18.53;43.37
76156;BME280;64906;51.290;7.348;2023-12-14T05:55:44;98248.84;;;18.52;43.54
76156;BME280;64906;51.290;7.348;2023-12-14T05:58:09;98259.13;;;18.60;43.60
76156;BME280;64906;51.290;7.348;2023-12-14T06:00:35;98264.31;;;18.62;43.40
76156;BME280;64906;51.290;7.348;2023-12-14T06:03:01;98262.41;;;18.62;43.26
76156;BME280;64906;51.290;7.348;2023-12-14T06:05:26;98260.16;;;18.64;43.59
76156;BME280;64906;51.290;7.348;2023-12-14T06:07:52;98266.75;;;18.63;43.61
76156;BME280;64906;51.290;7.348;2023-12-14T06:10:17;98273.78;;;18.69;43.66
76156;BME280;64906;51.290;7.348;2023-12-14T06:12:43;98273.53;;;18.66;43.50
76156;BME280;64906;51.290;7.348;2023-12-14T06:15:08;98273.25;;;18.67;43.64
76156;BME280;64906;51.290;7.348;2023-12-14T06:17:34;98283.91;;;18.69;43.67
76156;BME280;64906;51.290;7.348;2023-12-14T06:19:59;98292.31;;;18.72;43.61
76156;BME280;64906;51.290;7.348;2023-12-14T06:22:25;98301.06;;;18.74;43.41
76156;BME280;64906;51.290;7.348;2023-12-14T06:24:51;98296.41;;;18.75;43.65
76156;BME280;64906;51.290;7.348;2023-12-14T06:27:17;98307.88;;;18.77;43.48
76156;BME280;64906;51.290;7.348;2023-12-14T06:29:42;98320.13;;;18.80;43.36
76156;BME280;64906;51.290;7.348;2023-12-14T06:32:07;98324.78;;;18.79;43.66
76156;BME280;64906;51.290;7.348;2023-12-14T06:34:32;98324.63;;;18.70;43.81
76156;BME280;64906;51.290;7.348;2023-12-14T06:36:58;98325.72;;;18.69;43.71
76156;BME280;64906;51.290;7.348;2023-12-14T06:39:25;98334.75;;;18.70;43.60
76156;BME280;64906;51.290;7.348;2023-12-14T06:41:52;98345.38;;;18.71;43.59
76156;BME280;64906;51.290;7.348;2023-12-14T06:44:17;98347.81;;;18.73;43.68
76156;BME280;64906;51.290;7.348;2023-12-14T06:46:43;98351.91;;;18.76;43.82
76156;BME280;64906;51.290;7.348;2023-12-14T06:49:08;98364.72;;;18.80;43.58
76156;BME280;64906;51.290;7.348;2023-12-14T06:51:33;98376.19;;;18.82;43.49
76156;BME280;64906;51.290;7.348;2023-12-14T06:53:59;98374.81;;;18.80;43.56
76156;BME280;64906;51.290;7.348;2023-12-14T06:56:24;98369.94;;;18.77;43.75
76156;BME280;64906;51.290;7.348;2023-12-14T06:58:49;98383.31;;;18.78;43.89
76156;BME280;64906;51.290;7.348;2023-12-14T07:01:16;98381.13;;;18.80;43.77
76156;BME280;64906;51.290;7.348;2023-12-14T07:03:43;98385.47;;;18.81;43.65
76156;BME280;64906;51.290;7.348;2023-12-14T07:06:12;98390.88;;;18.86;43.47
76156;BME280;64906;51.290;7.348;2023-12-14T07:08:37;98390.28;;;18.89;43.53
76156;BME280;64906;51.290;7.348;2023-12-14T07:11:03;98400.66;;;18.92;43.63
76156;BME280;64906;51.290;7.348;2023-12-14T07:13:28;98399.03;;;18.91;43.71
76156;BME280;64906;51.290;7.348;2023-12-14T07:15:54;98406.66;;;18.94;43.49
76156;BME280;64906;51.290;7.348;2023-12-14T07:18:19;98408.13;;;18.87;43.46
76156;BME280;64906;51.290;7.348;2023-12-14T07:20:44;98420.97;;;18.86;43.91
76156;BME280;64906;51.290;7.348;2023-12-14T07:23:10;98423.69;;;18.86;43.89
76156;BME280;64906;51.290;7.348;2023-12-14T07:25:35;98436.00;;;18.89;43.75
76156;BME280;64906;51.290;7.348;2023-12-14T07:28:00;98442.25;;;18.89;43.99
76156;BME280;64906;51.290;7.348;2023-12-14T07:30:25;98443.63;;;18.92;43.95
76156;BME280;64906;51.290;7.348;2023-12-14T07:32:51;98441.16;;;18.90;43.99
76156;BME280;64906;51.290;7.348;2023-12-14T07:35:17;98447.16;;;18.92;43.82
76156;BME280;64906;51.290;7.348;2023-12-14T07:37:42;98443.63;;;18.92;44.20
76156;BME280;64906;51.290;7.348;2023-12-14T07:40:08;98446.88;;;18.94;43.74
76156;BME280;64906;51.290;7.348;2023-12-14T07:42:33;98450.41;;;18.94;43.96
76156;BME280;64906;51.290;7.348;2023-12-14T07:44:59;98463.00;;;18.95;43.92
76156;BME280;64906;51.290;7.348;2023-12-14T07:47:24;98471.22;;;18.95;44.04
76156;BME280;64906;51.290;7.348;2023-12-14T07:49:49;98471.72;;;18.97;43.71
76156;BME280;64906;51.290;7.348;2023-12-14T07:52:15;98480.75;;;18.98;44.07
76156;BME280;64906;51.290;7.348;2023-12-14T07:54:40;98480.75;;;18.98;44.23
76156;BME280;64906;51.290;7.348;2023-12-14T07:57:05;98494.22;;;18.89;44.36
76156;BME280;64906;51.290;7.348;2023-12-14T07:59:30;98498.38;;;18.87;43.61
76156;BME280;64906;51.290;7.348;2023-12-14T08:01:56;98507.09;;;18.89;44.17
76156;BME280;64906;51.290;7.348;2023-12-14T08:04:21;98511.75;;;18.88;43.99
76156;BME280;64906;51.290;7.348;2023-12-14T08:06:46;98519.38;;;18.91;44.11
76156;BME280;64906;51.290;7.348;2023-12-14T08:09:12;98516.06;;;18.94;44.36
76156;BME280;64906;51.290;7.348;2023-12-14T08:11:37;98522.88;;;18.97;44.37
76156;BME280;64906;51.290;7.348;2023-12-14T08:14:02;98529.16;;;18.97;44.18
76156;BME280;64906;51.290;7.348;2023-12-14T08:16:28;98529.16;;;18.97;44.07
76156;BME280;64906;51.290;7.348;2023-12-14T08:18:53;98537.88;;;18.99;44.46
76156;BME280;64906;51.290;7.348;2023-12-14T08:21:19;98535.69;;;19.01;44.18
76156;BME280;64906;51.290;7.348;2023-12-14T08:23:44;98551.28;;;19.01;44.50
76156;BME280;64906;51.290;7.348;2023-12-14T08:26:10;98552.94;;;19.02;44.21
76156;BME280;64906;51.290;7.348;2023-12-14T08:28:37;98555.97;;;19.00;44.58
76156;BME280;64906;51.290;7.348;2023-12-14T08:31:03;98554.84;;;19.01;44.43
76156;BME280;64906;51.290;7.348;2023-12-14T08:33:29;98558.91;;;19.04;44.55
76156;BME280;64906;51.290;7.348;2023-12-14T08:35:55;98565.19;;;19.04;44.50
76156;BME280;64906;51.290;7.348;2023-12-14T08:38:20;98567.94;;;19.04;44.32
76156;BME280;64906;51.290;7.348;2023-12-14T08:40:45;98576.94;;;19.10;44.21
76156;BME280;64906;51.290;7.348;2023-12-14T08:43:11;98586.75;;;19.11;44.48
76156;BME280;64906;51.290;7.348;2023-12-14T08:45:36;98582.09;;;19.11;44.40
76156;BME280;64906;51.290;7.348;2023-12-14T08:48:02;98592.75;;;19.13;44.12
76156;BME280;64906;51.290;7.348;2023-12-14T08:50:27;98593.59;;;19.13;44.40
76156;BME280;64906;51.290;7.348;2023-12-14T08:52:53;98590.56;;;19.15;44.16
76156;BME280;64906;51.290;7.348;2023-12-14T08:55:18;98598.78;;;19.15;44.27
76156;BME280;64906;51.290;7.348;2023-12-14T08:57:44;98607.78;;;19.15;44.58
76156;BME280;64906;51.290;7.348;2023-12-14T09:00:10;98611.13;;;19.07;44.28
76156;BME280;64906;51.290;7.348;2023-12-14T09:02:35;98616.91;;;19.06;44.78
76156;BME280;64906;51.290;7.348;2023-12-14T09:05:01;98617.72;;;19.06;44.78
76156;BME280;64906;51.290;7.348;2023-12-14T09:07:26;98626.75;;;19.07;44.44
76156;BME280;64906;51.290;7.348;2023-12-14T09:09:51;98631.94;;;19.08;44.54
76156;BME280;64906;51.290;7.348;2023-12-14T09:12:17;98637.13;;;19.10;44.81
76156;BME280;64906;51.290;7.348;2023-12-14T09:14:42;98638.75;;;19.11;44.42
76156;BME280;64906;51.290;7.348;2023-12-14T09:17:07;98652.13;;;19.12;44.66
76156;BME280;64906;51.290;7.348;2023-12-14T09:19:33;98647.78;;;19.11;44.67
76156;BME280;64906;51.290;7.348;2023-12-14T09:21:58;98661.16;;;19.13;44.93
76156;BME280;64906;51.290;7.348;2023-12-14T09:24:24;98657.31;;;19.14;44.69
76156;BME280;64906;51.290;7.348;2023-12-14T09:26:49;98656.22;;;19.15;44.79
76156;BME280;64906;51.290;7.348;2023-12-14T09:29:15;98663.31;;;19.16;44.79
76156;BME280;64906;51.290;7.348;2023-12-14T09:31:42;98659.97;;;19.24;44.57
76156;BME280;64906;51.290;7.348;2023-12-14T09:34:08;98670.91;;;19.24;44.33
76156;BME280;64906;51.290;7.348;2023-12-14T09:36:34;98676.94;;;19.26;44.45
76156;BME280;64906;51.290;7.348;2023-12-14T09:38:59;98681.28;;;19.27;44.31
76156;BME280;64906;51.290;7.348;2023-12-14T09:41:24;98687.84;;;19.31;44.62
76156;BME280;64906;51.290;7.348;2023-12-14T09:43:50;98694.97;;;19.32;44.24
76156;BME280;64906;51.290;7.348;2023-12-14T09:46:17;98700.13;;;19.33;44.61
76156;BME280;64906;51.290;7.348;2023-12-14T09:48:43;98699.06;;;19.34;44.64
76156;BME280;64906;51.290;7.348;2023-12-14T09:51:10;98705.03;;;19.36;44.56
76156;BME280;64906;51.290;7.348;2023-12-14T09:53:36;98701.50;;;19.36;44.59
76156;BME280;64906;51.290;7.348;2023-12-14T09:56:02;98714.91;;;19.37;44.55
76156;BME280;64906;51.290;7.348;2023-12-14T09:58:27;98713.81;;;19.33;44.75
76156;BME280;64906;51.290;7.348;2023-12-14T10:00:52;98722.31;;;19.32;44.48
76156;BME280;64906;51.290;7.348;2023-12-14T10:03:25;98722.31;;;19.32;44.64
76156;BME280;64906;51.290;7.348;2023-12-14T10:05:53;98727.00;;;19.31;44.73
76156;BME280;64906;51.290;7.348;2023-12-14T10:08:19;98736.81;;;19.37;44.81
76156;BME280;64906;51.290;7.348;2023-12-14T10:10:47;98735.41;;;19.40;44.70
76156;BME280;64906;51.290;7.348;2023-12-14T10:13:14;98739.50;;;19.42;44.45
76156;BME280;64906;51.290;7.348;2023-12-14T10:15:41;98740.88;;;19.40;44.40
76156;BME280;64906;51.290;7.348;2023-12-14T10:18:07;98743.66;;;19.35;44.60
76156;BME280;64906;51.290;7.348;2023-12-14T10:20:32;98742.28;;;19.37;44.92
76156;BME280;64906;51.290;7.348;2023-12-14T10:22:57;98751.53;;;19.41;44.38
76156;BME280;64906;51.290;7.348;2023-12-14T10:25:23;98742.56;;;19.36;44.38
76156;BME280;64906;51.290;7.348;2023-12-14T10:27:50;98746.09;;;19.36;44.85
76156;BME280;64906;51.290;7.348;2023-12-14T10:30:18;98755.34;;;19.45;44.61
76156;BME280;64906;51.290;7.348;2023-12-14T10:32:43;98755.06;;;19.47;44.19
76156;BME280;64906;51.290;7.348;2023-12-14T10:35:09;98758.63;;;19.47;44.38
76156;BME280;64906;51.290;7.348;2023-12-14T10:37:37;98760.25;;;19.48;44.25
76156;BME280;64906;51.290;7.348;2023-12-14T10:40:05;98761.06;;;19.49;44.22
76156;BME280;64906;51.290;7.348;2023-12-14T10:42:32;98767.38;;;19.49;44.08
76156;BME280;64906;51.290;7.348;2023-12-14T10:45:02;98765.72;;;19.48;44.16
76156;BME280;64906;51.290;7.348;2023-12-14T10:47:28;98771.19;;;19.48;44.29
76156;BME280;64906;51.290;7.348;2023-12-14T10:49:54;98778.59;;;19.48;44.32
76156;BME280;64906;51.290;7.348;2023-12-14T10:52:20;98785.41;;;19.50;44.40
76156;BME280;64906;51.290;7.348;2023-12-14T10:54:49;98785.72;;;19.49;44.18
76156;BME280;64906;51.290;7.348;2023-12-14T10:57:16;98784.59;;;19.50;44.25
76156;BME280;64906;51.290;7.348;2023-12-14T10:59:42;98778.31;;;19.49;44.17
76156;BME280;64906;51.290;7.348;2023-12-14T11:02:08;98793.34;;;19.52;44.01
76156;BME280;64906;51.290;7.348;2023-12-14T11:10:13;98810.59;;;19.52;44.12
76156;BME280;64906;51.290;7.348;2023-12-14T11:13:11;98804.31;;;19.52;43.78
76156;BME280;64906;51.290;7.348;2023-12-14T11:15:37;98810.59;;;19.52;43.75
76156;BME280;64906;51.290;7.348;2023-12-14T11:20:48;98810.31;;;19.54;43.90
76156;BME280;64906;51.290;7.348;2023-12-14T11:25:42;98813.84;;;19.54;43.68
76156;BME280;64906;51.290;7.348;2023-12-14T11:28:08;98825.63;;;19.55;43.55
76156;BME280;64906;51.290;7.348;2023-12-14T11:30:35;98823.72;;;19.55;43.41
76156;BME280;64906;51.290;7.348;2023-12-14T11:33:00;98828.09;;;19.56;43.89
76156;BME280;64906;51.290;7.348;2023-12-14T11:35:25;98840.97;;;19.56;43.80
76156;BME280;64906;51.290;7.348;2023-12-14T11:37:51;98837.13;;;19.57;43.88
76156;BME280;64906;51.290;7.348;2023-12-14T11:40:16;98839.31;;;19.55;43.91
76156;BME280;64906;51.290;7.348;2023-12-14T11:42:57;98840.69;;;19.57;43.87
76156;BME280;64906;51.290;7.348;2023-12-14T11:45:22;98834.63;;;19.60;43.73
76156;BME280;64906;51.290;7.348;2023-12-14T11:47:47;98840.91;;;19.61;43.30
76156;BME280;64906;51.290;7.348;2023-12-14T11:50:13;98840.41;;;19.59;43.75
76156;BME280;64906;51.290;7.348;2023-12-14T11:52:39;98843.13;;;19.59;43.55
76156;BME280;64906;51.290;7.348;2023-12-14T11:55:04;98847.50;;;19.60;43.37
76156;BME280;64906;51.290;7.348;2023-12-14T11:57:30;98851.06;;;19.60;43.59
76156;BME280;64906;51.290;7.348;2023-12-14T11:59:59;98854.34;;;19.62;43.32
76156;BME280;64906;51.290;7.348;2023-12-14T12:02:24;98845.00;;;19.63;43.43
76156;BME280;64906;51.290;7.348;2023-12-14T12:04:50;98854.84;;;19.64;43.32
76156;BME280;64906;51.290;7.348;2023-12-14T12:07:17;98856.78;;;19.64;43.41
76156;BME280;64906;51.290;7.348;2023-12-14T12:09:42;98864.16;;;19.68;43.53
76156;BME280;64906;51.290;7.348;2023-12-14T12:12:12;98864.16;;;19.68;43.49
76156;BME280;64906;51.290;7.348;2023-12-14T12:14:39;98859.50;;;19.69;43.28
76156;BME280;64906;51.290;7.348;2023-12-14T12:17:05;98866.59;;;19.70;43.37
76156;BME280;64906;51.290;7.348;2023-12-14T12:19:36;98867.44;;;19.70;43.52
76156;BME280;64906;51.290;7.348;2023-12-14T12:22:02;98876.97;;;19.73;43.05
76156;BME280;64906;51.290;7.348;2023-12-14T12:24:28;98870.97;;;19.71;43.43
76156;BME280;64906;51.290;7.348;2023-12-14T12:26:54;98877.25;;;19.71;43.27
76156;BME280;64906;51.290;7.348;2023-12-14T12:29:20;98873.69;;;19.71;43.09
76156;BME280;64906;51.290;7.348;2023-12-14T12:31:45;98873.69;;;19.71;43.40
76156;BME280;64906;51.290;7.348;2023-12-14T12:34:11;98869.59;;;19.73;43.03
76156;BME280;64906;51.290;7.348;2023-12-14T12:36:37;98870.69;;;19.72;43.25
76156;BME280;64906;51.290;7.348;2023-12-14T12:39:03;98866.31;;;19.71;43.04
76156;BME280;64906;51.290;7.348;2023-12-14T12:41:30;98871.78;;;19.71;43.36
76156;BME280;64906;51.290;7.348;2023-12-14T12:43:56;98874.53;;;19.71;43.29
76156;BME280;64906;51.290;7.348;2023-12-14T12:46:22;98874.53;;;19.71;42.97
76156;BME280;64906;51.290;7.348;2023-12-14T12:48:47;98870.69;;;19.72;43.18
76156;BME280;64906;51.290;7.348;2023-12-14T12:51:13;98870.44;;;19.69;42.75
76156;BME280;64906;51.290;7.348;2023-12-14T12:53:38;98876.75;;;19.64;43.36
76156;BME280;64906;51.290;7.348;2023-12-14T12:56:04;98876.44;;;19.71;42.86
76156;BME280;64906;51.290;7.348;2023-12-14T12:58:30;98878.28;;;19.80;43.07
76156;BME280;64906;51.290;7.348;2023-12-14T13:00:55;98884.34;;;19.77;43.22
76156;BME280;64906;51.290;7.348;2023-12-14T13:03:20;98883.28;;;19.73;43.00